sensor_id;sensor_type;location;lat;lon;timestamp;pressure;altitude;pressure_sealevel;temperature;humidity
63665;BME280;49820;33.966;73.390;2023-04-28T08:07:50;79140.81;;;11.24;100.00
63665;BME280;49820;33.966;73.390;2023-04-28T08:10:37;79135.63;;;12.13;100.00
63665;BME280;49820;33.966;73.390;2023-04-28T08:13:09;79116.13;;;12.99;100.00
63665;BME280;49820;33.966;73.390;2023-04-28T08:15:38;79122.22;;;12.42;100.00
63665;BME280;49820;33.966;73.390;2023-04-28T08:18:07;79124.81;;;12.17;100.00
63665;BME280;49820;33.966;73.390;2023-04-28T08:20:36;79126.56;;;11.01;100.00
63665;BME280;49820;33.966;73.390;2023-04-28T08:23:06;79114.38;;;10.73;100.00
63665;BME280;49820;33.966;73.390;2023-04-28T08:25:35;79113.06;;;11.73;100.00
63665;BME280;49820;33.966;73.390;2023-04-28T08:28:04;79083.78;;;11.01;100.00
63665;BME280;49820;33.966;73.390;2023-04-28T08:30:36;79093.28;;;10.94;100.00
63665;BME280;49820;33.966;73.390;2023-04-28T08:33:06;79103.88;;;11.33;100.00
63665;BME280;49820;33.966;73.390;2023-04-28T08:35:36;79075.84;;;12.74;100.00
63665;BME280;49820;33.966;73.390;2023-04-28T08:38:06;79072.41;;;14.02;100.00
63665;BME280;49820;33.966;73.390;2023-04-28T08:40:36;79071.59;;;13.83;100.00
63665;BME280;49820;33.966;73.390;2023-04-28T08:43:05;79080.25;;;14.31;100.00
63665;BME280;49820;33.966;73.390;2023-04-28T08:45:41;79082.75;;;14.37;100.00
63665;BME280;49820;33.966;73.390;2023-04-28T08:48:21;79078.22;;;15.16;100.00
63665;BME280;49820;33.966;73.390;2023-04-28T08:50:52;79063.06;;;14.65;100.00
63665;BME280;49820;33.966;73.390;2023-04-28T08:53:26;79073.13;;;14.67;100.00
63665;BME280;49820;33.966;73.390;2023-04-28T08:55:57;79078.81;;;13.65;100.00
63665;BME280;49820;33.966;73.390;2023-04-28T08:58:26;79052.22;;;12.56;100.00
63665;BME280;49820;33.966;73.390;2023-04-28T09:00:55;79047.91;;;13.89;100.00
63665;BME280;49820;33.966;73.390;2023-04-28T09:03:26;79041.53;;;12.81;100.00
63665;BME280;49820;33.966;73.390;2023-04-28T09:05:56;79065.28;;;12.14;100.00
63665;BME280;49820;33.966;73.390;2023-04-28T09:08:25;79062.41;;;11.94;100.00
63665;BME280;49820;33.966;73.390;2023-04-28T09:11:09;79070.41;;;11.65;100.00
63665;BME280;49820;33.966;73.390;2023-04-28T09:13:41;79064.38;;;12.78;100.00
63665;BME280;49820;33.966;73.390;2023-04-28T09:16:10;79046.94;;;12.52;100.00
63665;BME280;49820;33.966;73.390;2023-04-28T09:18:40;79047.81;;;12.44;100.00
63665;BME280;49820;33.966;73.390;2023-04-28T09:21:23;79011.69;;;13.43;100.00
63665;BME280;49820;33.966;73.390;2023-04-28T09:23:52;79038.59;;;13.16;100.00
63665;BME280;49820;33.966;73.390;2023-04-28T09:26:21;79007.44;;;13.27;100.00
63665;BME280;49820;33.966;73.390;2023-04-28T09:28:51;79010.28;;;14.12;100.00
63665;BME280;49820;33.966;73.390;2023-04-28T09:31:25;79011.16;;;14.27;100.00
63665;BME280;49820;33.966;73.390;2023-04-28T09:33:58;79013.19;;;14.27;100.00
63665;BME280;49820;33.966;73.390;2023-04-28T09:36:28;79005.22;;;14.02;100.00
63665;BME280;49820;33.966;73.390;2023-04-28T09:38:59;79008.16;;;13.94;100.00
63665;BME280;49820;33.966;73.390;2023-04-28T09:41:54;79004.34;;;14.30;100.00
63665;BME280;49820;33.966;73.390;2023-04-28T09:44:24;78978.91;;;14.06;100.00
63665;BME280;49820;33.966;73.390;2023-04-28T09:46:54;78992.84;;;14.55;100.00
63665;BME280;49820;33.966;73.390;2023-04-28T09:49:23;78993.38;;;14.36;100.00
63665;BME280;49820;33.966;73.390;2023-04-28T09:51:52;78975.19;;;14.60;100.00
63665;BME280;49820;33.966;73.390;2023-04-28T09:54:23;78976.81;;;14.30;100.00
63665;BME280;49820;33.966;73.390;2023-04-28T09:56:56;78976.28;;;14.25;100.00
63665;BME280;49820;33.966;73.390;2023-04-28T09:59:26;78983.94;;;13.73;100.00
63665;BME280;49820;33.966;73.390;2023-04-28T10:01:56;78968.44;;;13.75;100.00
63665;BME280;49820;33.966;73.390;2023-04-28T10:04:27;78956.91;;;13.79;100.00
63665;BME280;49820;33.966;73.390;2023-04-28T10:07:01;78973.25;;;13.94;100.00
63665;BME280;49820;33.966;73.390;2023-04-28T10:09:32;78975.81;;;13.98;100.00
63665;BME280;49820;33.966;73.390;2023-04-28T10:12:01;78975.28;;;13.93;100.00
63665;BME280;49820;33.966;73.390;2023-04-28T10:14:31;78987.03;;;14.25;100.00
63665;BME280;49820;33.966;73.390;2023-04-28T10:17:02;78965.16;;;14.17;100.00
63665;BME280;49820;33.966;73.390;2023-04-28T10:19:33;78967.38;;;14.31;99.08
63665;BME280;49820;33.966;73.390;2023-04-28T10:22:51;78978.78;;;13.88;100.00
63665;BME280;49820;33.966;73.390;2023-04-28T10:27:29;78960.94;;;14.84;95.93
63665;BME280;49820;33.966;73.390;2023-04-28T10:30:13;78956.03;;;15.09;94.27
63665;BME280;49820;33.966;73.390;2023-04-28T10:32:44;78966.53;;;14.57;90.48
63665;BME280;49820;33.966;73.390;2023-04-28T10:40:46;78942.44;;;15.13;87.27
63665;BME280;49820;33.966;73.390;2023-04-28T10:46:01;78956.31;;;14.62;82.41
63665;BME280;49820;33.966;73.390;2023-04-28T10:56:22;78955.47;;;14.67;81.82
63665;BME280;49820;33.966;73.390;2023-04-28T10:58:59;78943.69;;;14.77;82.80
63665;BME280;49820;33.966;73.390;2023-04-28T11:01:30;78946.00;;;14.68;83.44
63665;BME280;49820;33.966;73.390;2023-04-28T11:04:06;78939.13;;;14.52;83.62
63665;BME280;49820;33.966;73.390;2023-04-28T11:14:38;78940.69;;;14.04;79.26
63665;BME280;49820;33.966;73.390;2023-04-28T11:17:10;78944.13;;;14.65;81.72
63665;BME280;49820;33.966;73.390;2023-04-28T11:19:45;78934.78;;;14.62;81.10
63665;BME280;49820;33.966;73.390;2023-04-28T11:22:21;78925.25;;;14.25;69.83
63665;BME280;49820;33.966;73.390;2023-04-28T11:24:56;78928.88;;;13.74;76.19
63665;BME280;49820;33.966;73.390;2023-04-28T11:27:27;78929.59;;;13.72;77.40
63665;BME280;49820;33.966;73.390;2023-04-28T11:29:58;78925.38;;;14.00;71.85
63665;BME280;49820;33.966;73.390;2023-04-28T11:32:30;78918.50;;;14.47;75.92
63665;BME280;49820;33.966;73.390;2023-04-28T11:34:59;78907.13;;;14.03;74.29
63665;BME280;49820;33.966;73.390;2023-04-28T11:37:28;78913.63;;;13.89;83.13
63665;BME280;49820;33.966;73.390;2023-04-28T11:39:57;78912.34;;;13.45;80.51
63665;BME280;49820;33.966;73.390;2023-04-28T11:42:26;78912.09;;;13.30;85.07
63665;BME280;49820;33.966;73.390;2023-04-28T11:44:58;78904.34;;;13.20;76.74
63665;BME280;49820;33.966;73.390;2023-04-28T11:47:31;78905.06;;;13.85;72.10
63665;BME280;49820;33.966;73.390;2023-04-28T11:50:01;78911.84;;;13.82;74.08
63665;BME280;49820;33.966;73.390;2023-04-28T11:52:30;78921.00;;;13.68;79.21
63665;BME280;49820;33.966;73.390;2023-04-28T11:55:00;78909.56;;;13.47;76.25
63665;BME280;49820;33.966;73.390;2023-04-28T11:57:29;78904.81;;;13.49;81.33
63665;BME280;49820;33.966;73.390;2023-04-28T12:00:15;78924.78;;;13.54;75.63
63665;BME280;49820;33.966;73.390;2023-04-28T12:02:49;78896.25;;;13.65;74.85
63665;BME280;49820;33.966;73.390;2023-04-28T12:05:18;78881.66;;;13.81;76.81
63665;BME280;49820;33.966;73.390;2023-04-28T12:07:49;78877.50;;;13.43;78.51
63665;BME280;49820;33.966;73.390;2023-04-28T12:10:18;78885.81;;;13.55;83.24
63665;BME280;49820;33.966;73.390;2023-04-28T12:12:47;78877.41;;;13.24;83.24
63665;BME280;49820;33.966;73.390;2023-04-28T12:15:20;78847.84;;;12.80;87.03
63665;BME280;49820;33.966;73.390;2023-04-28T12:17:49;78885.53;;;12.74;89.12
63665;BME280;49820;33.966;73.390;2023-04-28T12:20:35;78892.66;;;12.59;93.44
63665;BME280;49820;33.966;73.390;2023-04-28T12:23:06;78892.75;;;12.07;97.79
63665;BME280;49820;33.966;73.390;2023-04-28T12:25:45;78900.28;;;12.26;90.37
63665;BME280;49820;33.966;73.390;2023-04-28T12:28:17;78888.31;;;11.98;98.19
63665;BME280;49820;33.966;73.390;2023-04-28T12:30:46;78867.28;;;11.28;100.00
63665;BME280;49820;33.966;73.390;2023-04-28T12:33:25;78876.59;;;11.02;100.00
63665;BME280;49820;33.966;73.390;2023-04-28T12:35:57;78889.25;;;11.32;100.00
63665;BME280;49820;33.966;73.390;2023-04-28T12:38:28;78873.63;;;10.85;100.00
63665;BME280;49820;33.966;73.390;2023-04-28T12:40:57;78888.06;;;10.67;100.00
63665;BME280;49820;33.966;73.390;2023-04-28T12:43:27;78873.91;;;10.42;100.00
63665;BME280;49820;33.966;73.390;2023-04-28T12:45:56;78865.09;;;10.15;100.00
63665;BME280;49820;33.966;73.390;2023-04-28T12:48:26;78844.09;;;9.99;100.00
63665;BME280;49820;33.966;73.390;2023-04-28T12:50:57;78876.72;;;10.36;100.00
63665;BME280;49820;33.966;73.390;2023-04-28T12:53:25;78870.31;;;10.23;100.00
63665;BME280;49820;33.966;73.390;2023-04-28T12:55:54;78848.00;;;10.04;100.00
63665;BME280;49820;33.966;73.390;2023-04-28T12:58:24;78824.50;;;9.77;100.00
63665;BME280;49820;33.966;73.390;2023-04-28T13:00:53;78850.69;;;10.02;100.00
63665;BME280;49820;33.966;73.390;2023-04-28T13:03:22;78862.72;;;10.01;100.00
63665;BME280;49820;33.966;73.390;2023-04-28T13:05:52;78851.81;;;9.80;100.00
63665;BME280;49820;33.966;73.390;2023-04-28T13:08:21;78852.34;;;9.51;100.00
63665;BME280;49820;33.966;73.390;2023-04-28T13:10:50;78867.28;;;9.38;100.00
63665;BME280;49820;33.966;73.390;2023-04-28T13:13:19;78862.69;;;9.33;100.00
63665;BME280;49820;33.966;73.390;2023-04-28T13:15:50;78845.66;;;9.17;100.00
63665;BME280;49820;33.966;73.390;2023-04-28T13:18:20;78830.69;;;8.98;100.00
63665;BME280;49820;33.966;73.390;2023-04-28T13:20:51;78838.28;;;8.81;100.00
63665;BME280;49820;33.966;73.390;2023-04-28T13:23:21;78854.47;;;8.69;100.00
63665;BME280;49820;33.966;73.390;2023-04-28T13:25:50;78847.78;;;8.70;100.00
63665;BME280;49820;33.966;73.390;2023-04-28T13:28:19;78792.59;;;8.25;100.00
63665;BME280;49820;33.966;73.390;2023-04-28T13:30:48;78841.34;;;8.57;100.00
63665;BME280;49820;33.966;73.390;2023-04-28T13:33:17;78842.88;;;8.43;100.00
63665;BME280;49820;33.966;73.390;2023-04-28T13:35:46;78850.03;;;8.55;100.00
63665;BME280;49820;33.966;73.390;2023-04-28T13:38:16;78855.88;;;8.64;100.00
63665;BME280;49820;33.966;73.390;2023-04-28T13:40:46;78854.78;;;8.51;100.00
63665;BME280;49820;33.966;73.390;2023-04-28T13:43:16;78849.69;;;8.34;100.00
63665;BME280;49820;33.966;73.390;2023-04-28T13:45:45;78839.34;;;8.12;100.00
63665;BME280;49820;33.966;73.390;2023-04-28T13:48:15;78832.03;;;8.13;100.00
63665;BME280;49820;33.966;73.390;2023-04-28T13:50:44;78851.09;;;8.27;100.00
63665;BME280;49820;33.966;73.390;2023-04-28T13:53:14;78799.81;;;7.88;100.00
63665;BME280;49820;33.966;73.390;2023-04-28T13:55:43;78831.56;;;8.00;100.00
63665;BME280;49820;33.966;73.390;2023-04-28T13:58:14;78838.31;;;7.93;100.00
63665;BME280;49820;33.966;73.390;2023-04-28T14:00:44;78833.25;;;7.75;100.00
63665;BME280;49820;33.966;73.390;2023-04-28T14:03:15;78841.75;;;7.83;100.00
63665;BME280;49820;33.966;73.390;2023-04-28T14:05:44;78839.22;;;7.75;100.00
63665;BME280;49820;33.966;73.390;2023-04-28T14:08:17;78844.41;;;7.85;100.00
63665;BME280;49820;33.966;73.390;2023-04-28T14:10:48;78839.16;;;7.79;100.00
63665;BME280;49820;33.966;73.390;2023-04-28T14:13:18;78840.03;;;7.63;100.00
63665;BME280;49820;33.966;73.390;2023-04-28T14:15:49;78837.97;;;7.68;100.00
63665;BME280;49820;33.966;73.390;2023-04-28T14:18:29;78833.94;;;7.71;100.00
63665;BME280;49820;33.966;73.390;2023-04-28T14:20:58;78845.31;;;7.68;100.00
63665;BME280;49820;33.966;73.390;2023-04-28T14:23:29;78813.81;;;7.37;100.00
63665;BME280;49820;33.966;73.390;2023-04-28T14:25:58;78840.09;;;7.59;100.00
63665;BME280;49820;33.966;73.390;2023-04-28T14:28:27;78816.31;;;7.47;100.00
63665;BME280;49820;33.966;73.390;2023-04-28T14:31:04;78831.59;;;7.49;100.00
63665;BME280;49820;33.966;73.390;2023-04-28T14:33:36;78849.59;;;7.44;100.00
63665;BME280;49820;33.966;73.390;2023-04-28T14:36:05;78868.06;;;7.54;100.00
63665;BME280;49820;33.966;73.390;2023-04-28T14:38:34;78866.09;;;7.53;100.00
63665;BME280;49820;33.966;73.390;2023-04-28T14:41:06;78870.72;;;7.54;100.00
63665;BME280;49820;33.966;73.390;2023-04-28T14:43:35;78858.94;;;7.39;100.00
63665;BME280;49820;33.966;73.390;2023-04-28T14:46:05;78823.13;;;7.34;100.00
63665;BME280;49820;33.966;73.390;2023-04-28T14:48:36;78857.50;;;7.48;100.00
63665;BME280;49820;33.966;73.390;2023-04-28T14:51:06;78870.06;;;7.54;100.00
63665;BME280;49820;33.966;73.390;2023-04-28T14:53:35;78821.31;;;7.20;100.00
63665;BME280;49820;33.966;73.390;2023-04-28T14:56:05;78881.91;;;7.63;100.00
63665;BME280;49820;33.966;73.390;2023-04-28T14:58:46;78859.47;;;7.50;100.00
63665;BME280;49820;33.966;73.390;2023-04-28T15:01:15;78881.03;;;7.81;100.00
63665;BME280;49820;33.966;73.390;2023-04-28T15:03:46;78883.09;;;7.76;100.00
63665;BME280;49820;33.966;73.390;2023-04-28T15:06:16;78875.81;;;7.73;100.00
63665;BME280;49820;33.966;73.390;2023-04-28T15:08:45;78888.38;;;7.78;100.00
63665;BME280;49820;33.966;73.390;2023-04-28T15:11:14;78897.06;;;7.75;100.00
63665;BME280;49820;33.966;73.390;2023-04-28T15:13:44;78875.69;;;7.81;100.00
63665;BME280;49820;33.966;73.390;2023-04-28T15:16:12;78872.50;;;7.72;100.00
63665;BME280;49820;33.966;73.390;2023-04-28T15:18:41;78881.81;;;7.71;100.00
63665;BME280;49820;33.966;73.390;2023-04-28T15:21:11;78889.09;;;7.73;100.00
63665;BME280;49820;33.966;73.390;2023-04-28T15:23:40;78913.50;;;7.87;100.00
63665;BME280;49820;33.966;73.390;2023-04-28T15:26:10;78837.09;;;7.35;100.00
63665;BME280;49820;33.966;73.390;2023-04-28T15:28:38;78883.88;;;7.66;100.00
63665;BME280;49820;33.966;73.390;2023-04-28T15:31:09;78876.53;;;7.67;100.00
63665;BME280;49820;33.966;73.390;2023-04-28T15:33:39;78892.34;;;7.79;100.00
63665;BME280;49820;33.966;73.390;2023-04-28T15:36:09;78891.06;;;7.74;100.00
63665;BME280;49820;33.966;73.390;2023-04-28T15:38:38;78892.16;;;7.93;100.00
63665;BME280;49820;33.966;73.390;2023-04-28T15:41:13;78898.03;;;8.02;100.00
63665;BME280;49820;33.966;73.390;2023-04-28T15:43:43;78875.13;;;7.74;100.00
63665;BME280;49820;33.966;73.390;2023-04-28T15:46:12;78879.81;;;7.72;100.00
63665;BME280;49820;33.966;73.390;2023-04-28T15:48:44;78874.72;;;7.53;100.00
63665;BME280;49820;33.966;73.390;2023-04-28T15:51:14;78913.00;;;7.77;100.00
63665;BME280;49820;33.966;73.390;2023-04-28T15:53:43;78907.91;;;7.58;100.00
63665;BME280;49820;33.966;73.390;2023-04-28T15:56:12;78913.22;;;7.56;100.00
63665;BME280;49820;33.966;73.390;2023-04-28T15:58:45;78893.47;;;7.41;100.00
63665;BME280;49820;33.966;73.390;2023-04-28T16:01:15;78871.75;;;7.22;100.00
63665;BME280;49820;33.966;73.390;2023-04-28T16:03:44;78906.84;;;7.35;100.00
63665;BME280;49820;33.966;73.390;2023-04-28T16:06:15;78891.06;;;7.21;100.00
63665;BME280;49820;33.966;73.390;2023-04-28T16:08:44;78905.41;;;7.44;100.00
63665;BME280;49820;33.966;73.390;2023-04-28T16:11:13;78869.81;;;7.19;100.00
63665;BME280;49820;33.966;73.390;2023-04-28T16:13:46;78919.38;;;7.41;100.00
63665;BME280;49820;33.966;73.390;2023-04-28T16:16:15;78914.22;;;7.28;100.00
63665;BME280;49820;33.966;73.390;2023-04-28T16:18:45;78884.19;;;7.38;100.00
63665;BME280;49820;33.966;73.390;2023-04-28T16:21:15;78895.25;;;7.61;100.00
63665;BME280;49820;33.966;73.390;2023-04-28T16:23:44;78904.44;;;7.70;100.00
63665;BME280;49820;33.966;73.390;2023-04-28T16:26:13;78917.44;;;7.94;100.00
63665;BME280;49820;33.966;73.390;2023-04-28T16:28:43;78888.31;;;7.82;100.00
63665;BME280;49820;33.966;73.390;2023-04-28T16:31:12;78895.06;;;7.73;100.00
63665;BME280;49820;33.966;73.390;2023-04-28T16:33:41;78897.59;;;7.85;98.53
63665;BME280;49820;33.966;73.390;2023-04-28T16:36:10;78922.50;;;8.13;99.48
63665;BME280;49820;33.966;73.390;2023-04-28T16:38:39;78924.44;;;8.18;96.28
63665;BME280;49820;33.966;73.390;2023-04-28T16:41:11;78895.31;;;8.06;100.00
63665;BME280;49820;33.966;73.390;2023-04-28T16:43:40;78880.78;;;7.99;100.00
63665;BME280;49820;33.966;73.390;2023-04-28T16:46:09;78916.34;;;8.24;100.00
63665;BME280;49820;33.966;73.390;2023-04-28T16:48:38;78886.63;;;8.10;96.56
63665;BME280;49820;33.966;73.390;2023-04-28T16:51:10;78900.16;;;8.43;100.00
63665;BME280;49820;33.966;73.390;2023-04-28T16:53:39;78895.28;;;8.55;100.00
63665;BME280;49820;33.966;73.390;2023-04-28T16:56:09;78908.50;;;8.61;100.00
63665;BME280;49820;33.966;73.390;2023-04-28T16:58:38;78894.09;;;8.46;100.00
63665;BME280;49820;33.966;73.390;2023-04-28T17:01:08;78898.88;;;8.39;100.00
63665;BME280;49820;33.966;73.390;2023-04-28T17:03:38;78848.84;;;8.01;100.00
63665;BME280;49820;33.966;73.390;2023-04-28T17:06:10;78914.88;;;8.80;94.45
63665;BME280;49820;33.966;73.390;2023-04-28T17:08:40;78906.38;;;8.70;100.00
63665;BME280;49820;33.966;73.390;2023-04-28T17:11:12;78892.34;;;8.73;100.00
63665;BME280;49820;33.966;73.390;2023-04-28T17:13:43;78888.50;;;8.64;100.00
63665;BME280;49820;33.966;73.390;2023-04-28T17:16:12;78854.28;;;8.38;100.00
63665;BME280;49820;33.966;73.390;2023-04-28T17:18:41;78883.94;;;8.59;98.61
63665;BME280;49820;33.966;73.390;2023-04-28T17:21:10;78899.69;;;8.73;100.00
63665;BME280;49820;33.966;73.390;2023-04-28T17:23:39;78910.59;;;9.00;100.00
63665;BME280;49820;33.966;73.390;2023-04-28T17:26:09;78861.50;;;8.87;100.00
63665;BME280;49820;33.966;73.390;2023-04-28T17:28:39;78853.47;;;8.89;100.00
63665;BME280;49820;33.966;73.390;2023-04-28T17:31:09;78863.53;;;8.84;100.00
63665;BME280;49820;33.966;73.390;2023-04-28T17:33:39;78893.94;;;8.99;100.00
